createdAt,value
2023-03-21T00:00:45.840Z,1002.1
2023-03-21T00:01:46.859Z,1002.1
2023-03-21T00:02:47.931Z,1002.1
2023-03-21T00:03:48.849Z,1002.1
2023-03-21T00:04:52.496Z,1002
2023-03-21T00:05:50.900Z,1002.1
2023-03-21T00:06:51.891Z,1002.1
2023-03-21T00:07:52.812Z,1002.1
2023-03-21T00:08:53.900Z,1002.1
2023-03-21T00:09:56.977Z,1002
2023-03-21T00:10:55.847Z,1002
2023-03-21T00:11:56.828Z,1002
2023-03-21T00:12:57.863Z,1002
2023-03-21T00:13:58.848Z,1002.1
2023-03-21T00:14:59.827Z,1002.1
2023-03-21T00:16:05.002Z,1001.4
2023-03-21T00:17:01.864Z,1001.9
2023-03-21T00:18:02.859Z,1002
2023-03-21T00:19:03.883Z,1002.1
2023-03-21T00:20:04.791Z,1002.1
2023-03-21T00:21:35.893Z,1002
2023-03-21T00:22:08.524Z,1002
2023-03-21T00:23:07.861Z,1002
2023-03-21T00:24:08.861Z,1002
2023-03-21T00:25:09.814Z,1001.9
2023-03-21T00:26:10.818Z,1002
2023-03-21T00:27:45.068Z,1001.9
2023-03-21T00:28:12.882Z,1002
2023-03-21T00:29:13.832Z,1001.9
2023-03-21T00:30:14.846Z,1001.9
2023-03-21T00:31:15.818Z,1001.9
2023-03-21T00:32:16.823Z,1001.9
2023-03-21T00:33:22.509Z,1001.9
2023-03-21T00:34:22.404Z,1001.9
2023-03-21T00:35:53.324Z,1001.9
2023-03-21T00:36:20.836Z,1001.9
2023-03-21T00:37:21.823Z,1001.9
2023-03-21T00:38:22.879Z,1001.9
2023-03-21T00:39:23.876Z,1001.9
2023-03-21T00:40:29.232Z,1002
2023-03-21T00:41:40.908Z,1001.9
2023-03-21T00:42:26.856Z,1001.9
2023-03-21T00:43:27.862Z,1001.9
2023-03-21T00:44:28.919Z,1001.9
2023-03-21T00:45:29.879Z,1001.8
2023-03-21T00:46:42.665Z,1001.9
2023-03-21T00:47:31.897Z,1001.9
2023-03-21T00:48:32.921Z,1001.9
2023-03-21T00:49:33.809Z,1001.9
2023-03-21T00:50:34.843Z,1001.3
2023-03-21T00:51:35.838Z,1001.8
2023-03-21T00:52:40.733Z,1001.9
2023-03-21T00:53:37.854Z,1002
2023-03-21T00:54:38.859Z,1002
2023-03-21T00:55:39.838Z,1002.1
2023-03-21T00:56:40.848Z,1002
2023-03-21T00:57:42.372Z,1002.1
2023-03-21T00:58:42.945Z,1002
2023-03-21T00:59:43.877Z,1002.1
2023-03-21T01:00:44.875Z,1002.1
2023-03-21T01:01:45.874Z,1002.1
2023-03-21T01:02:47.154Z,1002.1
2023-03-21T01:03:47.966Z,1002.1
2023-03-21T01:04:48.908Z,1002.2
2023-03-21T01:05:49.870Z,1002.1
2023-03-21T01:06:50.898Z,1002.1
2023-03-21T01:07:51.880Z,1002
2023-03-21T01:08:53.704Z,1002
2023-03-21T01:09:53.898Z,1002
2023-03-21T01:10:54.815Z,1002
2023-03-21T01:11:55.897Z,1002
2023-03-21T01:12:56.918Z,1001.9
2023-03-21T01:14:07.624Z,1001.9
2023-03-21T01:14:58.824Z,1001.9
2023-03-21T01:15:59.862Z,1001.9
2023-03-21T01:17:00.917Z,1001.9
2023-03-21T01:18:01.897Z,1001.8
2023-03-21T01:19:05.103Z,1001.9
2023-03-21T01:20:03.843Z,1001.9
2023-03-21T01:21:04.861Z,1001.9
2023-03-21T01:22:05.863Z,1001.9
2023-03-21T01:23:06.936Z,1001.9
2023-03-21T01:24:07.937Z,1001.8
2023-03-21T01:25:21.408Z,1001.8
2023-03-21T01:26:09.912Z,1001.8
2023-03-21T01:27:10.867Z,1001.8
2023-03-21T01:28:11.857Z,1001.8
2023-03-21T01:29:12.942Z,1001.8
2023-03-21T01:30:19.589Z,1001.8
2023-03-21T01:31:14.924Z,1001.7
2023-03-21T01:32:15.896Z,1001.7
2023-03-21T01:33:16.889Z,1001.7
2023-03-21T01:34:17.910Z,1001.6
2023-03-21T01:35:18.897Z,1001.6
2023-03-21T01:36:22.734Z,1001.6
2023-03-21T01:37:20.958Z,1001.6
2023-03-21T01:38:21.916Z,1001.5
2023-03-21T01:39:22.956Z,1001.5
2023-03-21T01:40:23.946Z,1001.6
2023-03-21T01:41:31.110Z,1001.6
2023-03-21T01:42:25.962Z,1001.7
2023-03-21T01:43:26.904Z,1001.7
2023-03-21T01:44:27.892Z,1001.6
2023-03-21T01:45:28.895Z,1001.6
2023-03-21T01:46:32.211Z,1001.6
2023-03-21T01:47:31.278Z,1001.6
2023-03-21T01:48:31.890Z,1001.6
2023-03-21T01:49:32.913Z,1001.6
2023-03-21T01:50:33.878Z,1001.6
2023-03-21T01:51:34.895Z,1001.6
2023-03-21T01:52:38.221Z,1001.6
2023-03-21T01:53:36.876Z,1001.7
2023-03-21T01:54:37.936Z,1001.7
2023-03-21T01:55:39.218Z,1001.7
2023-03-21T01:56:39.916Z,1001.7
2023-03-21T01:57:47.238Z,1001.7
2023-03-21T01:58:41.873Z,1001.7
2023-03-21T01:59:42.930Z,1001.7
2023-03-21T02:00:43.984Z,1001.8
2023-03-21T02:01:44.874Z,1001.8
2023-03-21T02:02:45.883Z,1001.8
2023-03-21T02:03:46.981Z,1001.8
2023-03-21T02:04:47.876Z,1001.8
2023-03-21T02:05:48.898Z,1001.8
2023-03-21T02:06:49.884Z,1001.7
2023-03-21T02:07:50.896Z,1001.7
2023-03-21T02:08:51.936Z,1001.8
2023-03-21T02:09:52.920Z,1001.8
2023-03-21T02:10:53.899Z,1001.8
2023-03-21T02:11:54.921Z,1001.8
2023-03-21T02:12:55.909Z,1001.8
2023-03-21T02:14:06.092Z,1001.8
2023-03-21T02:14:57.904Z,1001.9
2023-03-21T02:15:58.937Z,1001.9
2023-03-21T02:16:59.953Z,1001.8
2023-03-21T02:18:00.935Z,1001.8
2023-03-21T02:19:01.896Z,1001.8
2023-03-21T02:20:02.875Z,1001.8
2023-03-21T02:21:03.935Z,1001.8
2023-03-21T02:22:04.871Z,1001.8
2023-03-21T02:23:05.919Z,1001.8
2023-03-21T02:24:06.924Z,1001.8
2023-03-21T02:25:13.297Z,1001.9
2023-03-21T02:26:08.939Z,1001.8
2023-03-21T02:27:09.947Z,1001.9
2023-03-21T02:28:10.904Z,1001.9
2023-03-21T02:29:12.017Z,1001.9
2023-03-21T02:30:17.564Z,1001.9
2023-03-21T02:31:13.918Z,1001.9
2023-03-21T02:32:22.526Z,1001.9
2023-03-21T02:33:15.945Z,1001.9
2023-03-21T02:34:16.933Z,1002
2023-03-21T02:35:17.896Z,1001.9
2023-03-21T02:36:18.955Z,1001.8
2023-03-21T02:37:23.442Z,1001.3
2023-03-21T02:38:20.905Z,1001.7
2023-03-21T02:39:21.936Z,1001.8
2023-03-21T02:40:22.904Z,1001.8
2023-03-21T02:41:27.364Z,1001.9
2023-03-21T02:42:25.005Z,1001.8
2023-03-21T02:43:25.926Z,1001.9
2023-03-21T02:44:26.959Z,1001.9
2023-03-21T02:45:27.908Z,1001.9
2023-03-21T02:46:36.572Z,1001.9
2023-03-21T02:47:29.928Z,1001.9
2023-03-21T02:48:38.332Z,1001.9
2023-03-21T02:49:31.981Z,1001.9
2023-03-21T02:50:32.926Z,1001.9
2023-03-21T02:51:33.897Z,1001.6
2023-03-21T02:52:39.364Z,1001.8
2023-03-21T02:53:35.860Z,1001.8
2023-03-21T02:54:47.450Z,1001.8
2023-03-21T02:55:37.941Z,1001.8
2023-03-21T02:56:38.926Z,1001.8
2023-03-21T02:57:43.088Z,1001.8
2023-03-21T02:58:40.901Z,1001.8
2023-03-21T02:59:51.857Z,1001.8
2023-03-21T03:00:42.991Z,1001.8
2023-03-21T03:01:43.994Z,1001.8
2023-03-21T03:02:44.922Z,1001.8
2023-03-21T03:03:45.969Z,1001.8
2023-03-21T03:04:46.959Z,1001.8
2023-03-21T03:05:48.155Z,1001.8
2023-03-21T03:06:48.900Z,1001.8
2023-03-21T03:07:49.924Z,1001.8
2023-03-21T03:09:01.713Z,1001.8
2023-03-21T03:09:51.943Z,1001.8
2023-03-21T03:10:53.419Z,1001.8
2023-03-21T03:11:54.920Z,1001.8
2023-03-21T03:12:55.942Z,1001.8
2023-03-21T03:13:58.060Z,1001.8
2023-03-21T03:15:03.299Z,1001.8
2023-03-21T03:15:58.974Z,1001.8
2023-03-21T03:16:59.969Z,1001.8
2023-03-21T03:18:00.968Z,1001.4
2023-03-21T03:19:01.982Z,1001.7
2023-03-21T03:20:13.858Z,1001.9
2023-03-21T03:21:03.943Z,1001.9
2023-03-21T03:22:05.009Z,1001.9
2023-03-21T03:23:05.955Z,1001.9
2023-03-21T03:24:06.934Z,1001.8
2023-03-21T03:25:19.640Z,1001.8
2023-03-21T03:26:08.920Z,1001.9
2023-03-21T03:27:09.980Z,1001.9
2023-03-21T03:28:10.924Z,1002
2023-03-21T03:29:11.933Z,1001.9
2023-03-21T03:30:12.902Z,1001.9
2023-03-21T03:31:14.198Z,1001.9
2023-03-21T03:32:15.007Z,1001.9
2023-03-21T03:33:15.899Z,1001.8
2023-03-21T03:34:16.946Z,1001.9
2023-03-21T03:35:17.967Z,1001.9
2023-03-21T03:36:30.780Z,1002
2023-03-21T03:37:19.964Z,1002
2023-03-21T03:38:20.958Z,1002
2023-03-21T03:39:22.046Z,1002
2023-03-21T03:40:22.929Z,1002
2023-03-21T03:41:23.966Z,1002
2023-03-21T03:42:28.608Z,1002
2023-03-21T03:43:26.047Z,1001.9
2023-03-21T03:44:27.041Z,1001.9
2023-03-21T03:45:27.966Z,1001.9
2023-03-21T03:46:28.964Z,1001.9
2023-03-21T03:47:34.872Z,1001.9
2023-03-21T03:48:31.046Z,1001.9
2023-03-21T03:49:31.899Z,1002
2023-03-21T03:50:32.940Z,1001.9
2023-03-21T03:51:33.986Z,1002
2023-03-21T03:52:35.071Z,1002
2023-03-21T03:53:35.985Z,1001.9
2023-03-21T03:54:36.959Z,1001.9
2023-03-21T03:55:37.968Z,1001.9
2023-03-21T03:56:38.938Z,1002
2023-03-21T03:57:39.976Z,1002
2023-03-21T03:58:45.495Z,1002
2023-03-21T03:59:41.965Z,1002
2023-03-21T04:00:43.018Z,1001.9
2023-03-21T04:01:43.998Z,1002
2023-03-21T04:02:45.202Z,1002
2023-03-21T04:03:50.401Z,1002
2023-03-21T04:04:47.030Z,1002
2023-03-21T04:05:48.188Z,1002
2023-03-21T04:06:50.019Z,1002
2023-03-21T04:07:51.197Z,1001.9
2023-03-21T04:08:51.884Z,1002
2023-03-21T04:09:53.020Z,1002
2023-03-21T04:10:53.975Z,1002
2023-03-21T04:11:54.960Z,1002
2023-03-21T04:12:55.944Z,1002
2023-03-21T04:13:56.953Z,1002
2023-03-21T04:15:08.076Z,1002
2023-03-21T04:15:59.190Z,1002
2023-03-21T04:17:00.019Z,1002
2023-03-21T04:18:01.042Z,1002
2023-03-21T04:19:01.981Z,1002
2023-03-21T04:20:11.296Z,1002
2023-03-21T04:21:04.327Z,1002.1
2023-03-21T04:22:04.961Z,1002
2023-03-21T04:23:06.096Z,1002
2023-03-21T04:24:06.984Z,1002
2023-03-21T04:25:08.000Z,1002
2023-03-21T04:26:08.986Z,1002
2023-03-21T04:27:09.982Z,1002
2023-03-21T04:28:10.982Z,1002
2023-03-21T04:29:12.043Z,1002
2023-03-21T04:30:12.965Z,1002
2023-03-21T04:31:24.833Z,1002
2023-03-21T04:32:15.068Z,1002
2023-03-21T04:33:15.971Z,1002.1
2023-03-21T04:34:16.962Z,1002.1
2023-03-21T04:35:17.970Z,1002.1
2023-03-21T04:36:18.994Z,1002.1
2023-03-21T04:37:19.942Z,1002.1
2023-03-21T04:38:20.944Z,1002.1
2023-03-21T04:39:21.988Z,1002.1
2023-03-21T04:40:22.943Z,1002.1
2023-03-21T04:41:24.028Z,1002.1
2023-03-21T04:42:24.945Z,1002.1
2023-03-21T04:43:26.101Z,1002.1
2023-03-21T04:44:27.014Z,1002.1
2023-03-21T04:45:27.967Z,1002.1
2023-03-21T04:46:29.022Z,1002.1
2023-03-21T04:47:30.029Z,1002.1
2023-03-21T04:48:31.017Z,1002
2023-03-21T04:49:32.022Z,1002
2023-03-21T04:50:33.009Z,1002.1
2023-03-21T04:51:33.985Z,1002
2023-03-21T04:52:35.029Z,1002
2023-03-21T04:53:35.944Z,1002.1
2023-03-21T04:54:37.009Z,1002.1
2023-03-21T04:55:38.117Z,1002.1
2023-03-21T04:56:39.002Z,1002.1
2023-03-21T04:57:40.189Z,1002.2
2023-03-21T04:58:40.981Z,1002.1
2023-03-21T04:59:41.980Z,1002.1
2023-03-21T05:00:43.054Z,1002.1
2023-03-21T05:01:44.131Z,1002.1
2023-03-21T05:02:45.081Z,1002.2
2023-03-21T05:03:46.085Z,1002.1
2023-03-21T05:04:46.970Z,1002.1
2023-03-21T05:05:48.542Z,1002.1
2023-03-21T05:06:50.056Z,1002.1
2023-03-21T05:07:50.966Z,1002.1
2023-03-21T05:08:51.978Z,1002.1
2023-03-21T05:09:52.941Z,1002.1
2023-03-21T05:10:53.994Z,1002.1
2023-03-21T05:11:54.966Z,1002.1
2023-03-21T05:12:56.016Z,1002.1
2023-03-21T05:13:57.002Z,1002.1
2023-03-21T05:14:58.040Z,1002.1
2023-03-21T05:15:59.003Z,1002.1
2023-03-21T05:17:00.145Z,1002.2
2023-03-21T05:18:01.043Z,1002.2
2023-03-21T05:19:02.071Z,1002.1
2023-03-21T05:20:03.024Z,1002.1
2023-03-21T05:21:04.018Z,1002.2
2023-03-21T05:22:05.004Z,1002.2
2023-03-21T05:23:06.024Z,1002.2
2023-03-21T05:24:07.004Z,1002.2
2023-03-21T05:25:07.955Z,1002.2
2023-03-21T05:26:09.016Z,1002.2
2023-03-21T05:27:10.044Z,1002.2
2023-03-21T05:28:10.996Z,1002.2
2023-03-21T05:29:12.057Z,1002.3
2023-03-21T05:30:13.036Z,1002.2
2023-03-21T05:31:14.060Z,1002.2
2023-03-21T05:32:15.049Z,1002.2
2023-03-21T05:33:16.030Z,1002.3
2023-03-21T05:34:17.017Z,1002.3
2023-03-21T05:35:17.958Z,1002.3
2023-03-21T05:36:19.048Z,1002.3
2023-03-21T05:37:20.150Z,1002.3
2023-03-21T05:38:21.036Z,1002.3
2023-03-21T05:39:22.016Z,1002.3
2023-03-21T05:40:23.010Z,1002.4
2023-03-21T05:41:23.975Z,1002.3
2023-03-21T05:42:25.007Z,1002.3
2023-03-21T05:43:26.159Z,1002.3
2023-03-21T05:44:26.943Z,1002.3
2023-03-21T05:45:28.005Z,1002.3
2023-03-21T05:46:29.015Z,1002.4
2023-03-21T05:47:30.056Z,1002.4
2023-03-21T05:48:31.090Z,1002.6
2023-03-21T05:49:31.955Z,1002.4
2023-03-21T05:50:32.971Z,1002.4
2023-03-21T05:51:33.973Z,1001.2
2023-03-21T05:52:35.080Z,1002.1
2023-03-21T05:53:36.043Z,1002.3
2023-03-21T05:54:37.007Z,1002.4
2023-03-21T05:55:38.275Z,1002.4
2023-03-21T05:56:38.981Z,1002.4
2023-03-21T05:57:40.028Z,1002.4
2023-03-21T05:58:41.024Z,1002.4
2023-03-21T05:59:42.008Z,1002.4
2023-03-21T06:00:43.069Z,1002.4
2023-03-21T06:01:44.016Z,1002.4
2023-03-21T06:02:45.189Z,1002.4
2023-03-21T06:03:46.194Z,1002.4
2023-03-21T06:04:47.018Z,1002.4
2023-03-21T06:05:47.975Z,1002.4
2023-03-21T06:06:49.060Z,1002.4
2023-03-21T06:07:50.021Z,1002.4
2023-03-21T06:08:51.007Z,1002.4
2023-03-21T06:09:52.058Z,1002.4
2023-03-21T06:10:53.046Z,1002.4
2023-03-21T06:11:54.034Z,1002.4
2023-03-21T06:12:55.019Z,1002.4
2023-03-21T06:13:55.982Z,1002.4
2023-03-21T06:14:57.465Z,1002.4
2023-03-21T06:15:59.089Z,1002.4
2023-03-21T06:17:00.021Z,1002.4
2023-03-21T06:18:01.024Z,1002.4
2023-03-21T06:19:02.014Z,1002.4
2023-03-21T06:20:03.033Z,1002.4
2023-03-21T06:21:04.030Z,1002.5
2023-03-21T06:22:05.201Z,1002.4
2023-03-21T06:23:06.034Z,1002.4
2023-03-21T06:24:06.974Z,1002.4
2023-03-21T06:25:08.014Z,1002.4
2023-03-21T06:26:09.017Z,1002.4
2023-03-21T06:27:09.998Z,1002.5
2023-03-21T06:28:11.093Z,1002.5
2023-03-21T06:29:12.012Z,1002.5
2023-03-21T06:30:13.131Z,1002.5
2023-03-21T06:31:14.061Z,1002.4
2023-03-21T06:32:15.100Z,1002.5
2023-03-21T06:33:16.063Z,1002.5
2023-03-21T06:34:17.114Z,1002.5
2023-03-21T06:35:18.051Z,1002.5
2023-03-21T06:36:19.063Z,1002.5
2023-03-21T06:37:20.089Z,1002.5
2023-03-21T06:38:21.140Z,1002.5
2023-03-21T06:39:22.042Z,1002.6
2023-03-21T06:40:23.109Z,1002.5
2023-03-21T06:41:24.079Z,1002.5
2023-03-21T06:42:25.019Z,1002.6
2023-03-21T06:43:26.080Z,1002.5
2023-03-21T06:44:27.088Z,1002.5
2023-03-21T06:45:28.050Z,1002.5
2023-03-21T06:46:29.110Z,1002.5
2023-03-21T06:47:30.042Z,1002.5
2023-03-21T06:48:31.087Z,1002.6
2023-03-21T06:49:32.084Z,1002.6
2023-03-21T06:50:33.040Z,1002.6
2023-03-21T06:51:34.058Z,1002.6
2023-03-21T06:52:35.060Z,1002.6
2023-03-21T06:53:36.235Z,1002.6
2023-03-21T06:54:37.159Z,1002.6
2023-03-21T06:55:38.400Z,1002.7
2023-03-21T06:56:39.050Z,1002.7
2023-03-21T06:57:40.096Z,1002.7
2023-03-21T06:58:41.099Z,1002.7
2023-03-21T06:59:42.100Z,1002.8
2023-03-21T07:00:43.025Z,1002.8
2023-03-21T07:01:44.125Z,1002.8
2023-03-21T07:02:45.109Z,1002.7
2023-03-21T07:03:46.081Z,1002.7
2023-03-21T07:04:47.066Z,1002.7
2023-03-21T07:05:48.100Z,1002.8
2023-03-21T07:06:49.082Z,1002.8
2023-03-21T07:07:50.042Z,1002.8
2023-03-21T07:08:51.076Z,1002.8
2023-03-21T07:09:52.120Z,1002.8
2023-03-21T07:10:53.100Z,1002.9
2023-03-21T07:11:54.032Z,1002.8
2023-03-21T07:12:55.073Z,1002.9
2023-03-21T07:13:56.187Z,1002.8
2023-03-21T07:14:57.082Z,1002.9
2023-03-21T07:15:58.041Z,1002.9
2023-03-21T07:16:59.087Z,1002.9
2023-03-21T07:18:00.092Z,1002.9
2023-03-21T07:19:01.564Z,1002.9
2023-03-21T07:20:03.153Z,1002.9
2023-03-21T07:21:04.073Z,1002.8
2023-03-21T07:22:05.082Z,1002.9
2023-03-21T07:23:06.140Z,1002.9
2023-03-21T07:24:07.106Z,1002.8
2023-03-21T07:25:08.145Z,1002.9
2023-03-21T07:26:09.147Z,1002.8
2023-03-21T07:27:10.128Z,1002.5
2023-03-21T07:28:11.053Z,1002.8
2023-03-21T07:29:12.029Z,1002.8
2023-03-21T07:30:13.100Z,1002.8
2023-03-21T07:31:14.495Z,1002.9
2023-03-21T07:32:15.065Z,1002.9
2023-03-21T07:33:16.075Z,1003
2023-03-21T07:34:17.043Z,1003
2023-03-21T07:35:18.080Z,1002.9
2023-03-21T07:36:19.188Z,1002.9
2023-03-21T07:37:20.048Z,1003
2023-03-21T07:38:21.060Z,1002.9
2023-03-21T07:39:22.056Z,1002.9
2023-03-21T07:40:23.086Z,1002.9
2023-03-21T07:41:24.077Z,1002.9
2023-03-21T07:42:25.047Z,1002.9
2023-03-21T07:43:26.077Z,1002.9
2023-03-21T07:44:27.067Z,1002.9
2023-03-21T07:45:28.142Z,1002.9
2023-03-21T07:46:29.133Z,1002.9
2023-03-21T07:47:30.052Z,1002.9
2023-03-21T07:48:31.047Z,1003
2023-03-21T07:49:32.076Z,1002.9
2023-03-21T07:50:33.113Z,1003
2023-03-21T07:51:34.044Z,1002.9
2023-03-21T07:52:35.090Z,1002.9
2023-03-21T07:53:36.066Z,1002.9
2023-03-21T07:54:37.112Z,1002.9
2023-03-21T07:55:38.271Z,1003
2023-03-21T07:56:39.142Z,1003
2023-03-21T07:57:40.080Z,1002.9
2023-03-21T07:58:41.247Z,1003
2023-03-21T07:59:42.113Z,1003
2023-03-21T08:00:43.058Z,1003
2023-03-21T08:01:44.075Z,1003
2023-03-21T08:02:45.087Z,1003
2023-03-21T08:03:46.110Z,1003
2023-03-21T08:04:47.095Z,1003
2023-03-21T08:05:48.139Z,1003
2023-03-21T08:06:49.024Z,1003
2023-03-21T08:07:50.083Z,1003.1
2023-03-21T08:08:51.050Z,1003.1
2023-03-21T08:09:52.067Z,1003
2023-03-21T08:10:53.158Z,1003
2023-03-21T08:11:54.164Z,1003
2023-03-21T08:12:55.044Z,1003.1
2023-03-21T08:13:56.069Z,1003.1
2023-03-21T08:14:59.367Z,1003.1
2023-03-21T08:15:58.152Z,1003.1
2023-03-21T08:16:59.082Z,1003.1
2023-03-21T08:18:00.117Z,1003.1
2023-03-21T08:19:01.080Z,1003.1
2023-03-21T08:20:02.144Z,1003.2
2023-03-21T08:21:03.234Z,1003.2
2023-03-21T08:22:04.089Z,1003.1
2023-03-21T08:23:05.108Z,1003.2
2023-03-21T08:24:06.153Z,1003.2
2023-03-21T08:25:07.094Z,1003.2
2023-03-21T08:26:08.082Z,1003.2
2023-03-21T08:27:09.094Z,1003.2
2023-03-21T08:28:10.086Z,1003.3
2023-03-21T08:29:11.138Z,1003.2
2023-03-21T08:30:12.133Z,1003.2
2023-03-21T08:31:13.174Z,1002.9
2023-03-21T08:32:14.777Z,1003.1
2023-03-21T08:33:16.132Z,1003.2
2023-03-21T08:34:17.104Z,1003.2
2023-03-21T08:35:18.093Z,1003.2
2023-03-21T08:36:19.191Z,1003.2
2023-03-21T08:37:20.115Z,1003.3
2023-03-21T08:38:21.126Z,1003.2
2023-03-21T08:39:22.184Z,1003.2
2023-03-21T08:40:23.170Z,1003.3
2023-03-21T08:41:24.144Z,1003.3
2023-03-21T08:42:25.276Z,1003.2
2023-03-21T08:43:26.106Z,1003.2
2023-03-21T08:44:27.132Z,1003.2
2023-03-21T08:45:28.143Z,1003.3
2023-03-21T08:46:29.229Z,1003.2
2023-03-21T08:47:30.090Z,1003.3
2023-03-21T08:48:31.102Z,1003.3
2023-03-21T08:49:32.147Z,1003.3
2023-03-21T08:50:33.099Z,1003.3
2023-03-21T08:51:34.108Z,1003.3
2023-03-21T08:52:35.094Z,1003.3
2023-03-21T08:53:36.104Z,1003.3
2023-03-21T08:54:37.164Z,1003.3
2023-03-21T08:55:38.558Z,1003.3
2023-03-21T08:56:39.105Z,1003.3
2023-03-21T08:57:40.163Z,1003.3
2023-03-21T08:58:41.066Z,1003.3
2023-03-21T08:59:42.145Z,1003.3
2023-03-21T09:00:43.126Z,1003.3
2023-03-21T09:01:44.225Z,1003.3
2023-03-21T09:02:45.135Z,1003.3
2023-03-21T09:03:46.147Z,1003.4
2023-03-21T09:04:47.140Z,1003.3
2023-03-21T09:05:48.147Z,1003.3
2023-03-21T09:06:49.170Z,1003.4
2023-03-21T09:07:50.106Z,1003.4
2023-03-21T09:08:51.110Z,1003.4
2023-03-21T09:10:02.968Z,1003.5
2023-03-21T09:10:53.137Z,1003.4
2023-03-21T09:11:54.104Z,1003.4
2023-03-21T09:12:55.102Z,1003.4
2023-03-21T09:13:56.153Z,1003.4
2023-03-21T09:14:57.166Z,1003.4
2023-03-21T09:15:58.291Z,1003.4
2023-03-21T09:16:59.146Z,1003.5
2023-03-21T09:18:00.164Z,1003.4
2023-03-21T09:19:01.111Z,1003.4
2023-03-21T09:20:02.189Z,1003.4
2023-03-21T09:21:03.164Z,1003.5
2023-03-21T09:22:04.211Z,1003.4
2023-03-21T09:23:05.129Z,1003.4
2023-03-21T09:24:06.154Z,1003.4
2023-03-21T09:25:07.196Z,1003.4
2023-03-21T09:26:08.134Z,1003.4
2023-03-21T09:27:09.195Z,1003.4
2023-03-21T09:28:10.213Z,1003.4
2023-03-21T09:29:11.088Z,1003.4
2023-03-21T09:30:12.240Z,1003.4
2023-03-21T09:31:13.221Z,1003.4
2023-03-21T09:32:14.282Z,1003.4
2023-03-21T09:33:15.086Z,1003.4
2023-03-21T09:34:16.171Z,1003.4
2023-03-21T09:35:17.152Z,1003.3
2023-03-21T09:36:18.214Z,1003.3
2023-03-21T09:37:19.216Z,1003.1
2023-03-21T09:38:20.135Z,1003.3
2023-03-21T09:39:21.094Z,1003.3
2023-03-21T09:40:22.165Z,1003.3
2023-03-21T09:41:23.145Z,1003.4
2023-03-21T09:42:24.204Z,1003.4
2023-03-21T09:43:25.171Z,1003.4
2023-03-21T09:44:26.115Z,1003.4
2023-03-21T09:45:27.190Z,1003.3
2023-03-21T09:46:28.185Z,1003.3
2023-03-21T09:47:29.359Z,1003.4
2023-03-21T09:48:30.221Z,1003.4
2023-03-21T09:49:31.396Z,1003.3
2023-03-21T09:50:32.171Z,1003.3
2023-03-21T09:51:33.111Z,1003.4
2023-03-21T09:52:34.173Z,1003.4
2023-03-21T09:53:35.109Z,1003.4
2023-03-21T09:54:36.156Z,1003.4
2023-03-21T09:55:37.405Z,1003.4
2023-03-21T09:56:38.152Z,1003.4
2023-03-21T09:57:39.193Z,1003.4
2023-03-21T09:58:40.184Z,1003.3
2023-03-21T09:59:41.130Z,1003.4
2023-03-21T10:00:42.236Z,1003.3
2023-03-21T10:01:43.229Z,1003.3
2023-03-21T10:02:44.129Z,1003.3
2023-03-21T10:03:45.144Z,1003.3
2023-03-21T10:04:46.142Z,1003.4
2023-03-21T10:05:47.186Z,1003.3
2023-03-21T10:06:48.141Z,1003.3
2023-03-21T10:07:49.527Z,1003.2
2023-03-21T10:08:50.120Z,1003.2
2023-03-21T10:09:51.150Z,1003.2
2023-03-21T10:10:52.156Z,1003.2
2023-03-21T10:11:53.151Z,1003.1
2023-03-21T10:12:54.172Z,1003.2
2023-03-21T10:13:55.150Z,1003.2
2023-03-21T10:14:57.641Z,1003.3
2023-03-21T10:15:57.179Z,1003.2
2023-03-21T10:16:58.190Z,1003.2
2023-03-21T10:17:59.262Z,1003.2
2023-03-21T10:19:00.141Z,1003.2
2023-03-21T10:20:01.192Z,1003.1
2023-03-21T10:21:02.188Z,1003.1
2023-03-21T10:22:04.081Z,1003.2
2023-03-21T10:23:04.240Z,1003.1
2023-03-21T10:24:05.214Z,1003.2
2023-03-21T10:25:06.161Z,1003.1
2023-03-21T10:26:07.136Z,1003.2
2023-03-21T10:27:08.132Z,1003.2
2023-03-21T10:28:09.131Z,1003.2
2023-03-21T10:29:10.298Z,1003.2
2023-03-21T10:30:11.114Z,1003.2
2023-03-21T10:31:12.202Z,1003.1
2023-03-21T10:32:13.124Z,1003.2
2023-03-21T10:33:14.238Z,1003.3
2023-03-21T10:34:15.226Z,1003.2
2023-03-21T10:35:16.146Z,1003.2
2023-03-21T10:36:17.198Z,1003.2
2023-03-21T10:37:18.144Z,1003.3
2023-03-21T10:38:19.223Z,1003.2
2023-03-21T10:39:20.200Z,1003.2
2023-03-21T10:40:21.217Z,1003.2
2023-03-21T10:41:22.172Z,1003.2
2023-03-21T10:42:24.163Z,1003.2
2023-03-21T10:43:25.140Z,1003.2
2023-03-21T10:44:26.203Z,1003.2
2023-03-21T10:45:27.239Z,1003.2
2023-03-21T10:46:28.438Z,1003.2
2023-03-21T10:47:29.452Z,1003.2
2023-03-21T10:48:30.243Z,1003.2
2023-03-21T10:49:31.400Z,1003.1
2023-03-21T10:50:32.320Z,1003.1
2023-03-21T10:51:33.163Z,1003.1
2023-03-21T10:52:34.203Z,1003.1
2023-03-21T10:53:35.234Z,1003.2
2023-03-21T10:54:36.186Z,1003.2
2023-03-21T10:55:37.560Z,1003.2
2023-03-21T10:56:38.169Z,1003.1
2023-03-21T10:57:39.209Z,1003.2
2023-03-21T10:58:40.165Z,1003.2
2023-03-21T10:59:41.296Z,1003.2
2023-03-21T11:00:42.181Z,1003.2
2023-03-21T11:01:43.270Z,1003.2
2023-03-21T11:02:44.272Z,1003.2
2023-03-21T11:03:45.201Z,1003.1
2023-03-21T11:04:46.230Z,1003.2
2023-03-21T11:05:47.206Z,1003.2
2023-03-21T11:06:48.162Z,1003.2
2023-03-21T11:07:49.721Z,1003.2
2023-03-21T11:08:51.246Z,1003.1
2023-03-21T11:09:53.562Z,1003.1
2023-03-21T11:10:53.164Z,1003.1
2023-03-21T11:11:54.157Z,1003.1
2023-03-21T11:12:55.243Z,1003.2
2023-03-21T11:13:56.170Z,1003.1
2023-03-21T11:14:57.188Z,1003.2
2023-03-21T11:15:58.209Z,1003.2
2023-03-21T11:16:59.221Z,1003.2
2023-03-21T11:18:00.245Z,1003.2
2023-03-21T11:19:01.186Z,1003.2
2023-03-21T11:20:02.306Z,1003.2
2023-03-21T11:21:03.184Z,1003.1
2023-03-21T11:22:04.229Z,1003.1
2023-03-21T11:23:05.251Z,1003.2
2023-03-21T11:24:07.536Z,1003.1
2023-03-21T11:25:07.259Z,1003.1
2023-03-21T11:26:08.205Z,1003.1
2023-03-21T11:27:09.213Z,1003.1
2023-03-21T11:28:10.227Z,1003.1
2023-03-21T11:29:11.237Z,1003
2023-03-21T11:30:12.214Z,1003
2023-03-21T11:31:13.368Z,1003
2023-03-21T11:32:14.207Z,1003
2023-03-21T11:33:15.187Z,1003
2023-03-21T11:34:16.236Z,1003
2023-03-21T11:35:19.394Z,1003.1
2023-03-21T11:36:18.261Z,1003.2
2023-03-21T11:37:19.207Z,1003.1
2023-03-21T11:38:20.208Z,1003
2023-03-21T11:39:21.214Z,1003
2023-03-21T11:40:22.230Z,1003
2023-03-21T11:41:23.227Z,1003
2023-03-21T11:42:24.208Z,1003
2023-03-21T11:43:25.197Z,1003
2023-03-21T11:44:26.227Z,1003
2023-03-21T11:45:27.230Z,1002.9
2023-03-21T11:46:28.289Z,1003
2023-03-21T11:47:29.231Z,1003
2023-03-21T11:48:30.267Z,1003
2023-03-21T11:49:31.304Z,1003
2023-03-21T11:50:32.210Z,1003
2023-03-21T11:51:33.199Z,1003
2023-03-21T11:52:34.213Z,1002.9
2023-03-21T11:53:35.227Z,1003
2023-03-21T11:54:36.311Z,1003
2023-03-21T11:55:37.608Z,1002.9
2023-03-21T11:56:38.228Z,1002.7
2023-03-21T11:57:39.218Z,1002.9
2023-03-21T11:58:40.275Z,1002.9
2023-03-21T11:59:41.239Z,1002.9
2023-03-21T12:00:42.288Z,1002.9
2023-03-21T12:01:43.192Z,1002.9
2023-03-21T12:02:44.309Z,1002.9
2023-03-21T12:03:48.237Z,1002.9
2023-03-21T12:04:46.280Z,1002.9
2023-03-21T12:05:47.226Z,1002.9
2023-03-21T12:06:48.494Z,1002.8
2023-03-21T12:07:49.906Z,1002.8
2023-03-21T12:08:51.192Z,1002.8
2023-03-21T12:09:52.392Z,1002.8
2023-03-21T12:10:53.284Z,1002.8
2023-03-21T12:11:54.304Z,1002.8
2023-03-21T12:12:55.246Z,1002.8
2023-03-21T12:13:56.233Z,1002.8
2023-03-21T12:14:57.228Z,1002.8
2023-03-21T12:15:58.285Z,1002.8
2023-03-21T12:16:59.189Z,1002.9
2023-03-21T12:18:00.306Z,1002.8
2023-03-21T12:19:01.227Z,1002.8
2023-03-21T12:20:02.244Z,1002.7
2023-03-21T12:21:03.213Z,1002.7
2023-03-21T12:22:04.216Z,1002.7
2023-03-21T12:23:05.323Z,1002.7
2023-03-21T12:24:06.214Z,1002.7
2023-03-21T12:25:07.304Z,1002.6
2023-03-21T12:26:08.249Z,1002.6
2023-03-21T12:27:09.196Z,1002.7
2023-03-21T12:28:10.235Z,1002.6
2023-03-21T12:29:11.204Z,1002.7
2023-03-21T12:30:12.239Z,1002.6
2023-03-21T12:31:13.260Z,1002.6
2023-03-21T12:32:14.263Z,1002.6
2023-03-21T12:33:15.230Z,1002.6
2023-03-21T12:34:16.323Z,1002.6
2023-03-21T12:35:17.263Z,1002.6
2023-03-21T12:36:18.274Z,1002.6
2023-03-21T12:37:19.308Z,1002.6
2023-03-21T12:38:20.197Z,1002.6
2023-03-21T12:39:21.261Z,1002.6
2023-03-21T12:40:22.398Z,1002.6
2023-03-21T12:41:23.268Z,1002.5
2023-03-21T12:42:24.289Z,1002.5
2023-03-21T12:43:25.188Z,1002.5
2023-03-21T12:44:26.201Z,1002.5
2023-03-21T12:45:29.434Z,1002.5
2023-03-21T12:46:28.316Z,1002.5
2023-03-21T12:47:29.201Z,1002.5
2023-03-21T12:48:30.317Z,1002.5